sensor_id;sensor_type;location;lat;lon;timestamp;P1;durP1;ratioP1;P2;durP2;ratioP2
990;SDS011;484;48.128;11.602;2024-03-22T00:02:27;11.17;;;9.40;;
990;SDS011;484;48.128;11.602;2024-03-22T00:05:13;11.30;;;8.40;;
990;SDS011;484;48.128;11.602;2024-03-22T00:08:00;11.27;;;8.20;;
990;SDS011;484;48.128;11.602;2024-03-22T00:10:44;11.07;;;7.60;;
990;SDS011;484;48.128;11.602;2024-03-22T00:13:31;11.03;;;9.03;;
990;SDS011;484;48.128;11.602;2024-03-22T00:16:16;11.13;;;9.53;;
990;SDS011;484;48.128;11.602;2024-03-22T00:19:01;11.50;;;9.10;;
990;SDS011;484;48.128;11.602;2024-03-22T00:21:46;14.50;;;9.00;;
990;SDS011;484;48.128;11.602;2024-03-22T00:24:31;10.93;;;8.33;;
990;SDS011;484;48.128;11.602;2024-03-22T00:27:16;9.30;;;8.03;;
990;SDS011;484;48.128;11.602;2024-03-22T00:30:03;10.17;;;9.07;;
990;SDS011;484;48.128;11.602;2024-03-22T00:32:48;11.30;;;9.23;;
990;SDS011;484;48.128;11.602;2024-03-22T00:35:34;12.00;;;9.50;;
990;SDS011;484;48.128;11.602;2024-03-22T00:38:19;13.50;;;9.03;;
990;SDS011;484;48.128;11.602;2024-03-22T00:41:04;12.73;;;8.60;;
990;SDS011;484;48.128;11.602;2024-03-22T00:43:50;10.67;;;9.67;;
990;SDS011;484;48.128;11.602;2024-03-22T00:46:37;10.97;;;8.90;;
990;SDS011;484;48.128;11.602;2024-03-22T00:49:22;12.87;;;7.97;;
990;SDS011;484;48.128;11.602;2024-03-22T00:52:07;10.60;;;8.20;;
990;SDS011;484;48.128;11.602;2024-03-22T00:54:53;10.70;;;9.60;;
990;SDS011;484;48.128;11.602;2024-03-22T00:57:38;11.60;;;9.07;;
990;SDS011;484;48.128;11.602;2024-03-22T01:00:23;10.53;;;9.03;;
990;SDS011;484;48.128;11.602;2024-03-22T01:03:09;13.97;;;9.60;;
990;SDS011;484;48.128;11.602;2024-03-22T01:05:55;10.00;;;7.40;;
990;SDS011;484;48.128;11.602;2024-03-22T01:08:41;10.03;;;9.13;;
990;SDS011;484;48.128;11.602;2024-03-22T01:11:26;10.03;;;7.87;;
990;SDS011;484;48.128;11.602;2024-03-22T01:14:11;9.57;;;8.47;;
990;SDS011;484;48.128;11.602;2024-03-22T01:16:57;11.47;;;8.93;;
990;SDS011;484;48.128;11.602;2024-03-22T01:19:43;11.43;;;8.50;;
990;SDS011;484;48.128;11.602;2024-03-22T01:22:28;12.60;;;8.70;;
990;SDS011;484;48.128;11.602;2024-03-22T01:25:13;13.53;;;9.77;;
990;SDS011;484;48.128;11.602;2024-03-22T01:27:58;9.87;;;8.80;;
990;SDS011;484;48.128;11.602;2024-03-22T01:30:43;11.97;;;8.47;;
990;SDS011;484;48.128;11.602;2024-03-22T01:33:28;11.93;;;8.10;;
990;SDS011;484;48.128;11.602;2024-03-22T01:36:14;9.67;;;8.30;;
990;SDS011;484;48.128;11.602;2024-03-22T01:39:00;9.30;;;8.00;;
990;SDS011;484;48.128;11.602;2024-03-22T01:41:44;11.23;;;8.80;;
990;SDS011;484;48.128;11.602;2024-03-22T01:44:31;10.00;;;8.57;;
990;SDS011;484;48.128;11.602;2024-03-22T01:47:16;12.53;;;9.07;;
990;SDS011;484;48.128;11.602;2024-03-22T01:50:02;12.47;;;9.30;;
990;SDS011;484;48.128;11.602;2024-03-22T01:52:48;10.50;;;8.20;;
990;SDS011;484;48.128;11.602;2024-03-22T01:55:34;8.97;;;7.83;;
990;SDS011;484;48.128;11.602;2024-03-22T01:58:19;9.93;;;8.50;;
990;SDS011;484;48.128;11.602;2024-03-22T02:01:05;11.30;;;8.13;;
990;SDS011;484;48.128;11.602;2024-03-22T02:03:50;10.03;;;8.67;;
990;SDS011;484;48.128;11.602;2024-03-22T02:06:36;9.50;;;8.10;;
990;SDS011;484;48.128;11.602;2024-03-22T02:09:22;8.93;;;7.90;;
990;SDS011;484;48.128;11.602;2024-03-22T02:12:08;10.23;;;8.50;;
990;SDS011;484;48.128;11.602;2024-03-22T02:14:53;9.30;;;7.67;;
990;SDS011;484;48.128;11.602;2024-03-22T02:17:38;10.60;;;8.87;;
990;SDS011;484;48.128;11.602;2024-03-22T02:20:23;13.03;;;9.43;;
990;SDS011;484;48.128;11.602;2024-03-22T02:23:08;11.43;;;8.90;;
990;SDS011;484;48.128;11.602;2024-03-22T02:25:55;11.60;;;8.60;;
990;SDS011;484;48.128;11.602;2024-03-22T02:28:39;13.60;;;9.60;;
990;SDS011;484;48.128;11.602;2024-03-22T02:31:25;13.33;;;9.47;;
990;SDS011;484;48.128;11.602;2024-03-22T02:34:10;10.70;;;9.10;;
990;SDS011;484;48.128;11.602;2024-03-22T02:36:56;12.77;;;9.70;;
990;SDS011;484;48.128;11.602;2024-03-22T02:39:40;11.43;;;10.30;;
990;SDS011;484;48.128;11.602;2024-03-22T02:42:28;11.13;;;8.83;;
990;SDS011;484;48.128;11.602;2024-03-22T02:45:12;15.00;;;9.67;;
990;SDS011;484;48.128;11.602;2024-03-22T02:47:58;11.77;;;9.10;;
990;SDS011;484;48.128;11.602;2024-03-22T02:50:43;9.20;;;8.20;;
990;SDS011;484;48.128;11.602;2024-03-22T02:53:28;12.77;;;9.77;;
990;SDS011;484;48.128;11.602;2024-03-22T02:56:13;10.70;;;8.50;;
990;SDS011;484;48.128;11.602;2024-03-22T02:58:59;15.57;;;10.03;;
990;SDS011;484;48.128;11.602;2024-03-22T03:01:44;10.73;;;9.37;;
990;SDS011;484;48.128;11.602;2024-03-22T03:04:29;10.90;;;9.83;;
990;SDS011;484;48.128;11.602;2024-03-22T03:07:14;11.53;;;9.23;;
990;SDS011;484;48.128;11.602;2024-03-22T03:09:59;14.80;;;8.60;;
990;SDS011;484;48.128;11.602;2024-03-22T03:12:44;9.23;;;7.90;;
990;SDS011;484;48.128;11.602;2024-03-22T03:15:31;9.53;;;8.57;;
990;SDS011;484;48.128;11.602;2024-03-22T03:18:15;10.40;;;9.00;;
990;SDS011;484;48.128;11.602;2024-03-22T03:21:01;18.03;;;9.00;;
990;SDS011;484;48.128;11.602;2024-03-22T03:23:45;11.03;;;9.70;;
990;SDS011;484;48.128;11.602;2024-03-22T03:26:31;12.90;;;8.57;;
990;SDS011;484;48.128;11.602;2024-03-22T03:29:15;12.77;;;10.00;;
990;SDS011;484;48.128;11.602;2024-03-22T03:32:02;11.03;;;9.87;;
990;SDS011;484;48.128;11.602;2024-03-22T03:34:47;14.60;;;10.40;;
990;SDS011;484;48.128;11.602;2024-03-22T03:37:32;12.90;;;9.60;;
990;SDS011;484;48.128;11.602;2024-03-22T03:40:17;11.37;;;9.13;;
990;SDS011;484;48.128;11.602;2024-03-22T03:43:02;12.90;;;9.30;;
990;SDS011;484;48.128;11.602;2024-03-22T03:45:47;10.67;;;8.37;;
990;SDS011;484;48.128;11.602;2024-03-22T03:48:34;12.90;;;9.17;;
990;SDS011;484;48.128;11.602;2024-03-22T03:51:19;15.33;;;9.70;;
990;SDS011;484;48.128;11.602;2024-03-22T03:54:04;15.10;;;10.40;;
990;SDS011;484;48.128;11.602;2024-03-22T03:56:49;8.87;;;7.93;;
990;SDS011;484;48.128;11.602;2024-03-22T03:59:34;11.47;;;10.13;;
990;SDS011;484;48.128;11.602;2024-03-22T04:02:19;11.73;;;10.53;;
990;SDS011;484;48.128;11.602;2024-03-22T04:05:06;11.40;;;9.10;;
990;SDS011;484;48.128;11.602;2024-03-22T04:07:51;11.20;;;8.63;;
990;SDS011;484;48.128;11.602;2024-03-22T04:10:37;13.23;;;9.97;;
990;SDS011;484;48.128;11.602;2024-03-22T04:13:22;13.60;;;9.10;;
990;SDS011;484;48.128;11.602;2024-03-22T04:16:07;10.30;;;9.00;;
990;SDS011;484;48.128;11.602;2024-03-22T04:18:52;13.73;;;9.40;;
990;SDS011;484;48.128;11.602;2024-03-22T04:21:39;10.67;;;8.30;;
990;SDS011;484;48.128;11.602;2024-03-22T04:24:24;12.30;;;9.27;;
990;SDS011;484;48.128;11.602;2024-03-22T04:27:09;11.33;;;9.23;;
990;SDS011;484;48.128;11.602;2024-03-22T04:29:54;10.73;;;7.97;;
990;SDS011;484;48.128;11.602;2024-03-22T04:32:39;14.53;;;9.20;;
990;SDS011;484;48.128;11.602;2024-03-22T04:35:24;10.50;;;9.00;;
990;SDS011;484;48.128;11.602;2024-03-22T04:38:10;16.13;;;9.40;;
990;SDS011;484;48.128;11.602;2024-03-22T04:40:56;9.30;;;7.10;;
990;SDS011;484;48.128;11.602;2024-03-22T04:43:42;10.83;;;8.50;;
990;SDS011;484;48.128;11.602;2024-03-22T04:46:28;10.67;;;7.83;;
990;SDS011;484;48.128;11.602;2024-03-22T04:49:13;9.03;;;7.83;;
990;SDS011;484;48.128;11.602;2024-03-22T04:51:58;13.43;;;8.80;;
990;SDS011;484;48.128;11.602;2024-03-22T04:54:45;13.63;;;8.70;;
990;SDS011;484;48.128;11.602;2024-03-22T04:57:31;13.47;;;8.17;;
990;SDS011;484;48.128;11.602;2024-03-22T05:00:17;9.47;;;7.70;;
990;SDS011;484;48.128;11.602;2024-03-22T05:03:01;15.00;;;8.37;;
990;SDS011;484;48.128;11.602;2024-03-22T05:05:49;13.43;;;9.83;;
990;SDS011;484;48.128;11.602;2024-03-22T05:08:33;12.73;;;8.63;;
990;SDS011;484;48.128;11.602;2024-03-22T05:11:20;9.60;;;8.60;;
990;SDS011;484;48.128;11.602;2024-03-22T05:14:05;9.33;;;7.63;;
990;SDS011;484;48.128;11.602;2024-03-22T05:16:50;10.17;;;7.80;;
990;SDS011;484;48.128;11.602;2024-03-22T05:19:36;9.70;;;8.27;;
990;SDS011;484;48.128;11.602;2024-03-22T05:22:21;8.50;;;7.60;;
990;SDS011;484;48.128;11.602;2024-03-22T05:25:07;11.63;;;7.17;;
990;SDS011;484;48.128;11.602;2024-03-22T05:27:54;11.00;;;8.70;;
990;SDS011;484;48.128;11.602;2024-03-22T05:30:39;11.63;;;7.93;;
990;SDS011;484;48.128;11.602;2024-03-22T05:33:25;9.93;;;7.83;;
990;SDS011;484;48.128;11.602;2024-03-22T05:36:09;10.13;;;7.73;;
990;SDS011;484;48.128;11.602;2024-03-22T05:38:55;9.60;;;7.20;;
990;SDS011;484;48.128;11.602;2024-03-22T05:41:39;10.13;;;7.17;;
990;SDS011;484;48.128;11.602;2024-03-22T05:44:26;7.93;;;7.13;;
990;SDS011;484;48.128;11.602;2024-03-22T05:47:11;9.60;;;7.33;;
990;SDS011;484;48.128;11.602;2024-03-22T05:49:57;9.60;;;7.20;;
990;SDS011;484;48.128;11.602;2024-03-22T05:52:41;8.90;;;7.80;;
990;SDS011;484;48.128;11.602;2024-03-22T05:55:26;10.77;;;7.30;;
990;SDS011;484;48.128;11.602;2024-03-22T05:58:15;8.20;;;7.37;;
990;SDS011;484;48.128;11.602;2024-03-22T06:01:01;8.97;;;7.03;;
990;SDS011;484;48.128;11.602;2024-03-22T06:03:46;7.33;;;6.47;;
990;SDS011;484;48.128;11.602;2024-03-22T06:06:32;7.97;;;7.00;;
990;SDS011;484;48.128;11.602;2024-03-22T06:09:17;7.97;;;6.40;;
990;SDS011;484;48.128;11.602;2024-03-22T06:12:07;8.90;;;7.43;;
990;SDS011;484;48.128;11.602;2024-03-22T06:14:52;10.03;;;7.60;;
990;SDS011;484;48.128;11.602;2024-03-22T06:17:38;16.60;;;9.10;;
990;SDS011;484;48.128;11.602;2024-03-22T06:20:23;7.77;;;6.30;;
990;SDS011;484;48.128;11.602;2024-03-22T06:23:09;9.83;;;5.90;;
990;SDS011;484;48.128;11.602;2024-03-22T06:25:53;13.93;;;6.87;;
990;SDS011;484;48.128;11.602;2024-03-22T06:28:39;7.53;;;6.63;;
990;SDS011;484;48.128;11.602;2024-03-22T06:31:25;8.10;;;6.47;;
990;SDS011;484;48.128;11.602;2024-03-22T06:34:11;7.87;;;6.20;;
990;SDS011;484;48.128;11.602;2024-03-22T06:36:56;7.33;;;6.37;;
990;SDS011;484;48.128;11.602;2024-03-22T06:39:41;5.63;;;5.17;;
990;SDS011;484;48.128;11.602;2024-03-22T06:42:26;7.70;;;6.37;;
990;SDS011;484;48.128;11.602;2024-03-22T06:45:11;7.20;;;5.43;;
990;SDS011;484;48.128;11.602;2024-03-22T06:47:56;10.00;;;7.53;;
990;SDS011;484;48.128;11.602;2024-03-22T06:50:42;6.93;;;6.33;;
990;SDS011;484;48.128;11.602;2024-03-22T06:53:28;6.10;;;5.60;;
990;SDS011;484;48.128;11.602;2024-03-22T06:56:12;7.93;;;6.53;;
990;SDS011;484;48.128;11.602;2024-03-22T06:58:58;7.70;;;5.90;;
990;SDS011;484;48.128;11.602;2024-03-22T07:01:42;5.90;;;5.30;;
990;SDS011;484;48.128;11.602;2024-03-22T07:04:28;7.70;;;6.47;;
990;SDS011;484;48.128;11.602;2024-03-22T07:07:13;6.20;;;5.37;;
990;SDS011;484;48.128;11.602;2024-03-22T07:09:59;6.63;;;5.97;;
990;SDS011;484;48.128;11.602;2024-03-22T07:12:43;5.53;;;5.03;;
990;SDS011;484;48.128;11.602;2024-03-22T07:15:29;9.03;;;7.57;;
990;SDS011;484;48.128;11.602;2024-03-22T07:18:16;6.17;;;5.37;;
990;SDS011;484;48.128;11.602;2024-03-22T07:21:01;6.33;;;5.20;;
990;SDS011;484;48.128;11.602;2024-03-22T07:23:49;9.30;;;5.90;;
990;SDS011;484;48.128;11.602;2024-03-22T07:26:34;6.23;;;5.70;;
990;SDS011;484;48.128;11.602;2024-03-22T07:29:19;6.37;;;5.77;;
990;SDS011;484;48.128;11.602;2024-03-22T07:32:05;13.03;;;6.33;;
990;SDS011;484;48.128;11.602;2024-03-22T07:34:50;6.70;;;5.60;;
990;SDS011;484;48.128;11.602;2024-03-22T07:37:35;8.07;;;6.57;;
990;SDS011;484;48.128;11.602;2024-03-22T07:40:21;5.07;;;4.67;;
990;SDS011;484;48.128;11.602;2024-03-22T07:43:07;7.90;;;6.37;;
990;SDS011;484;48.128;11.602;2024-03-22T07:45:52;7.83;;;5.97;;
990;SDS011;484;48.128;11.602;2024-03-22T07:48:37;9.13;;;6.53;;
990;SDS011;484;48.128;11.602;2024-03-22T07:51:22;6.80;;;5.83;;
990;SDS011;484;48.128;11.602;2024-03-22T07:54:07;6.60;;;6.00;;
990;SDS011;484;48.128;11.602;2024-03-22T07:56:53;5.47;;;4.97;;
990;SDS011;484;48.128;11.602;2024-03-22T07:59:39;8.03;;;5.30;;
990;SDS011;484;48.128;11.602;2024-03-22T08:02:24;6.17;;;5.17;;
990;SDS011;484;48.128;11.602;2024-03-22T08:05:09;6.00;;;5.53;;
990;SDS011;484;48.128;11.602;2024-03-22T08:07:54;7.73;;;5.53;;
990;SDS011;484;48.128;11.602;2024-03-22T08:10:39;13.03;;;5.57;;
990;SDS011;484;48.128;11.602;2024-03-22T08:13:25;5.70;;;5.20;;
990;SDS011;484;48.128;11.602;2024-03-22T08:16:14;6.37;;;5.77;;
990;SDS011;484;48.128;11.602;2024-03-22T08:18:58;5.70;;;4.80;;
990;SDS011;484;48.128;11.602;2024-03-22T08:21:44;6.13;;;5.37;;
990;SDS011;484;48.128;11.602;2024-03-22T08:24:28;7.40;;;5.60;;
990;SDS011;484;48.128;11.602;2024-03-22T08:27:14;6.67;;;6.07;;
990;SDS011;484;48.128;11.602;2024-03-22T08:30:00;5.70;;;5.20;;
990;SDS011;484;48.128;11.602;2024-03-22T08:32:46;6.80;;;6.30;;
990;SDS011;484;48.128;11.602;2024-03-22T08:35:30;6.30;;;5.17;;
990;SDS011;484;48.128;11.602;2024-03-22T08:38:16;5.90;;;5.30;;
990;SDS011;484;48.128;11.602;2024-03-22T08:41:01;6.20;;;5.60;;
990;SDS011;484;48.128;11.602;2024-03-22T08:43:47;6.37;;;5.73;;
990;SDS011;484;48.128;11.602;2024-03-22T08:46:33;7.50;;;5.17;;
990;SDS011;484;48.128;11.602;2024-03-22T08:49:19;6.13;;;5.60;;
990;SDS011;484;48.128;11.602;2024-03-22T08:52:04;5.60;;;5.10;;
990;SDS011;484;48.128;11.602;2024-03-22T08:54:50;5.60;;;5.10;;
990;SDS011;484;48.128;11.602;2024-03-22T08:57:34;5.43;;;5.00;;
990;SDS011;484;48.128;11.602;2024-03-22T09:00:20;5.67;;;4.90;;
990;SDS011;484;48.128;11.602;2024-03-22T09:03:07;7.50;;;6.17;;
990;SDS011;484;48.128;11.602;2024-03-22T09:05:52;10.50;;;4.73;;
990;SDS011;484;48.128;11.602;2024-03-22T09:08:37;4.60;;;4.20;;
990;SDS011;484;48.128;11.602;2024-03-22T09:11:23;6.70;;;4.53;;
990;SDS011;484;48.128;11.602;2024-03-22T09:14:08;4.00;;;3.70;;
990;SDS011;484;48.128;11.602;2024-03-22T09:16:54;4.93;;;4.50;;
990;SDS011;484;48.128;11.602;2024-03-22T09:19:40;6.27;;;5.77;;
990;SDS011;484;48.128;11.602;2024-03-22T09:22:26;5.07;;;4.57;;
990;SDS011;484;48.128;11.602;2024-03-22T09:25:11;5.30;;;4.43;;
990;SDS011;484;48.128;11.602;2024-03-22T09:27:57;5.17;;;4.33;;
990;SDS011;484;48.128;11.602;2024-03-22T09:30:41;7.20;;;4.60;;
990;SDS011;484;48.128;11.602;2024-03-22T09:33:27;7.70;;;5.03;;
990;SDS011;484;48.128;11.602;2024-03-22T09:36:13;7.80;;;5.20;;
990;SDS011;484;48.128;11.602;2024-03-22T09:38:59;6.97;;;4.40;;
990;SDS011;484;48.128;11.602;2024-03-22T09:41:43;4.53;;;4.23;;
990;SDS011;484;48.128;11.602;2024-03-22T09:44:29;4.60;;;4.30;;
990;SDS011;484;48.128;11.602;2024-03-22T09:47:14;3.93;;;3.63;;
990;SDS011;484;48.128;11.602;2024-03-22T09:50:00;6.20;;;3.90;;
990;SDS011;484;48.128;11.602;2024-03-22T09:52:46;5.13;;;4.63;;
990;SDS011;484;48.128;11.602;2024-03-22T09:55:32;4.00;;;3.60;;
990;SDS011;484;48.128;11.602;2024-03-22T09:58:18;4.27;;;3.87;;
990;SDS011;484;48.128;11.602;2024-03-22T10:01:03;3.43;;;3.13;;
990;SDS011;484;48.128;11.602;2024-03-22T10:03:49;4.00;;;3.80;;
990;SDS011;484;48.128;11.602;2024-03-22T10:06:35;4.00;;;3.33;;
990;SDS011;484;48.128;11.602;2024-03-22T10:09:29;5.30;;;4.00;;
990;SDS011;484;48.128;11.602;2024-03-22T10:12:16;7.37;;;4.43;;
990;SDS011;484;48.128;11.602;2024-03-22T10:15:01;4.90;;;4.50;;
990;SDS011;484;48.128;11.602;2024-03-22T10:17:45;4.10;;;3.53;;
990;SDS011;484;48.128;11.602;2024-03-22T10:20:31;3.17;;;2.90;;
990;SDS011;484;48.128;11.602;2024-03-22T10:23:17;5.53;;;4.90;;
990;SDS011;484;48.128;11.602;2024-03-22T10:26:04;5.00;;;4.50;;
990;SDS011;484;48.128;11.602;2024-03-22T10:28:49;4.30;;;4.00;;
990;SDS011;484;48.128;11.602;2024-03-22T10:31:34;6.23;;;5.37;;
990;SDS011;484;48.128;11.602;2024-03-22T10:34:19;4.93;;;4.63;;
990;SDS011;484;48.128;11.602;2024-03-22T10:37:06;3.53;;;3.33;;
990;SDS011;484;48.128;11.602;2024-03-22T10:39:52;4.30;;;4.00;;
990;SDS011;484;48.128;11.602;2024-03-22T10:42:41;4.20;;;3.90;;
990;SDS011;484;48.128;11.602;2024-03-22T10:45:26;3.70;;;3.40;;
990;SDS011;484;48.128;11.602;2024-03-22T10:48:12;3.70;;;3.50;;
990;SDS011;484;48.128;11.602;2024-03-22T10:50:59;4.70;;;4.40;;
990;SDS011;484;48.128;11.602;2024-03-22T10:53:45;5.20;;;4.80;;
990;SDS011;484;48.128;11.602;2024-03-22T10:56:30;4.73;;;4.13;;
990;SDS011;484;48.128;11.602;2024-03-22T10:59:19;3.77;;;3.57;;
990;SDS011;484;48.128;11.602;2024-03-22T11:02:05;3.93;;;3.53;;
990;SDS011;484;48.128;11.602;2024-03-22T11:04:54;4.30;;;3.90;;
990;SDS011;484;48.128;11.602;2024-03-22T11:07:43;3.93;;;3.63;;
990;SDS011;484;48.128;11.602;2024-03-22T11:10:31;5.07;;;4.67;;
990;SDS011;484;48.128;11.602;2024-03-22T11:13:18;3.57;;;3.37;;
990;SDS011;484;48.128;11.602;2024-03-22T11:16:04;4.10;;;3.80;;
990;SDS011;484;48.128;11.602;2024-03-22T11:18:51;3.60;;;3.40;;
990;SDS011;484;48.128;11.602;2024-03-22T11:21:36;4.97;;;4.57;;
990;SDS011;484;48.128;11.602;2024-03-22T11:24:21;4.27;;;3.97;;
990;SDS011;484;48.128;11.602;2024-03-22T11:27:06;3.90;;;3.60;;
990;SDS011;484;48.128;11.602;2024-03-22T11:29:53;4.07;;;3.77;;
990;SDS011;484;48.128;11.602;2024-03-22T11:32:40;3.50;;;3.30;;
990;SDS011;484;48.128;11.602;2024-03-22T11:35:28;8.83;;;6.70;;
990;SDS011;484;48.128;11.602;2024-03-22T11:38:13;5.07;;;4.67;;
990;SDS011;484;48.128;11.602;2024-03-22T11:40:59;6.30;;;3.83;;
990;SDS011;484;48.128;11.602;2024-03-22T11:43:44;4.33;;;4.00;;
990;SDS011;484;48.128;11.602;2024-03-22T11:46:31;4.70;;;4.30;;
990;SDS011;484;48.128;11.602;2024-03-22T11:49:17;4.50;;;4.30;;
990;SDS011;484;48.128;11.602;2024-03-22T11:52:03;5.07;;;4.67;;
990;SDS011;484;48.128;11.602;2024-03-22T11:54:50;5.13;;;4.83;;
990;SDS011;484;48.128;11.602;2024-03-22T11:57:36;4.30;;;4.00;;
990;SDS011;484;48.128;11.602;2024-03-22T12:00:22;5.10;;;4.60;;
990;SDS011;484;48.128;11.602;2024-03-22T12:03:06;7.27;;;5.07;;
990;SDS011;484;48.128;11.602;2024-03-22T12:05:53;3.50;;;3.30;;
990;SDS011;484;48.128;11.602;2024-03-22T12:08:39;5.23;;;4.73;;
990;SDS011;484;48.128;11.602;2024-03-22T12:11:24;3.80;;;3.60;;
990;SDS011;484;48.128;11.602;2024-03-22T12:14:08;3.90;;;3.67;;
990;SDS011;484;48.128;11.602;2024-03-22T12:16:54;4.63;;;4.03;;
990;SDS011;484;48.128;11.602;2024-03-22T12:19:38;4.57;;;4.17;;
990;SDS011;484;48.128;11.602;2024-03-22T12:22:25;5.27;;;4.83;;
990;SDS011;484;48.128;11.602;2024-03-22T12:25:11;7.23;;;6.33;;
990;SDS011;484;48.128;11.602;2024-03-22T12:27:56;4.80;;;4.50;;
990;SDS011;484;48.128;11.602;2024-03-22T12:30:41;5.53;;;5.03;;
990;SDS011;484;48.128;11.602;2024-03-22T12:33:25;4.07;;;3.63;;
990;SDS011;484;48.128;11.602;2024-03-22T12:36:11;5.27;;;4.87;;
990;SDS011;484;48.128;11.602;2024-03-22T12:38:57;4.30;;;3.90;;
990;SDS011;484;48.128;11.602;2024-03-22T12:41:43;6.60;;;4.23;;
990;SDS011;484;48.128;11.602;2024-03-22T12:44:27;5.60;;;4.40;;
990;SDS011;484;48.128;11.602;2024-03-22T12:47:13;4.77;;;4.37;;
990;SDS011;484;48.128;11.602;2024-03-22T12:49:57;4.97;;;4.33;;
990;SDS011;484;48.128;11.602;2024-03-22T12:52:43;4.67;;;4.27;;
990;SDS011;484;48.128;11.602;2024-03-22T12:55:30;4.03;;;3.83;;
990;SDS011;484;48.128;11.602;2024-03-22T12:58:16;3.93;;;3.63;;
990;SDS011;484;48.128;11.602;2024-03-22T13:01:00;4.00;;;3.60;;
990;SDS011;484;48.128;11.602;2024-03-22T13:03:47;5.60;;;3.70;;
990;SDS011;484;48.128;11.602;2024-03-22T13:06:31;3.80;;;3.60;;
990;SDS011;484;48.128;11.602;2024-03-22T13:09:18;4.17;;;3.87;;
990;SDS011;484;48.128;11.602;2024-03-22T13:12:07;5.53;;;4.67;;
990;SDS011;484;48.128;11.602;2024-03-22T13:14:52;6.37;;;3.97;;
990;SDS011;484;48.128;11.602;2024-03-22T13:17:37;4.23;;;3.93;;
990;SDS011;484;48.128;11.602;2024-03-22T13:20:22;6.67;;;6.07;;
990;SDS011;484;48.128;11.602;2024-03-22T13:23:07;4.20;;;3.80;;
990;SDS011;484;48.128;11.602;2024-03-22T13:25:53;3.53;;;3.23;;
990;SDS011;484;48.128;11.602;2024-03-22T13:28:38;4.30;;;4.00;;
990;SDS011;484;48.128;11.602;2024-03-22T13:31:25;3.90;;;3.30;;
990;SDS011;484;48.128;11.602;2024-03-22T13:34:10;3.70;;;3.37;;
990;SDS011;484;48.128;11.602;2024-03-22T13:36:56;3.50;;;3.20;;
990;SDS011;484;48.128;11.602;2024-03-22T13:39:41;3.50;;;3.30;;
990;SDS011;484;48.128;11.602;2024-03-22T13:42:26;4.47;;;4.17;;
990;SDS011;484;48.128;11.602;2024-03-22T13:45:13;3.07;;;2.83;;
990;SDS011;484;48.128;11.602;2024-03-22T13:47:58;9.83;;;3.63;;
990;SDS011;484;48.128;11.602;2024-03-22T13:50:43;2.87;;;2.60;;
990;SDS011;484;48.128;11.602;2024-03-22T13:53:28;5.50;;;3.40;;
990;SDS011;484;48.128;11.602;2024-03-22T13:56:13;3.17;;;2.97;;
990;SDS011;484;48.128;11.602;2024-03-22T13:58:57;2.60;;;2.27;;
990;SDS011;484;48.128;11.602;2024-03-22T14:01:44;2.77;;;2.57;;
990;SDS011;484;48.128;11.602;2024-03-22T14:04:30;2.37;;;2.17;;
990;SDS011;484;48.128;11.602;2024-03-22T14:07:16;2.90;;;2.57;;
990;SDS011;484;48.128;11.602;2024-03-22T14:10:00;3.30;;;3.10;;
990;SDS011;484;48.128;11.602;2024-03-22T14:12:46;2.23;;;2.03;;
990;SDS011;484;48.128;11.602;2024-03-22T14:15:31;3.00;;;2.80;;
990;SDS011;484;48.128;11.602;2024-03-22T14:18:18;4.63;;;4.23;;
990;SDS011;484;48.128;11.602;2024-03-22T14:21:03;3.33;;;2.73;;
990;SDS011;484;48.128;11.602;2024-03-22T14:23:49;2.20;;;2.10;;
990;SDS011;484;48.128;11.602;2024-03-22T14:26:34;2.60;;;2.40;;
990;SDS011;484;48.128;11.602;2024-03-22T14:29:26;2.80;;;2.60;;
990;SDS011;484;48.128;11.602;2024-03-22T14:32:10;2.30;;;2.10;;
990;SDS011;484;48.128;11.602;2024-03-22T14:34:57;1.93;;;1.83;;
990;SDS011;484;48.128;11.602;2024-03-22T14:37:42;2.40;;;2.00;;
990;SDS011;484;48.128;11.602;2024-03-22T14:40:28;2.83;;;2.37;;
990;SDS011;484;48.128;11.602;2024-03-22T14:43:15;2.13;;;1.87;;
990;SDS011;484;48.128;11.602;2024-03-22T14:46:00;1.80;;;1.70;;
990;SDS011;484;48.128;11.602;2024-03-22T14:48:47;2.50;;;2.00;;
990;SDS011;484;48.128;11.602;2024-03-22T14:51:33;1.90;;;1.80;;
990;SDS011;484;48.128;11.602;2024-03-22T14:54:19;2.30;;;2.10;;
990;SDS011;484;48.128;11.602;2024-03-22T14:57:03;2.27;;;1.93;;
990;SDS011;484;48.128;11.602;2024-03-22T14:59:49;3.63;;;1.77;;
990;SDS011;484;48.128;11.602;2024-03-22T15:02:36;2.60;;;2.23;;
990;SDS011;484;48.128;11.602;2024-03-22T15:05:22;3.90;;;1.93;;
990;SDS011;484;48.128;11.602;2024-03-22T15:08:07;1.50;;;1.40;;
990;SDS011;484;48.128;11.602;2024-03-22T15:10:53;3.47;;;3.07;;
990;SDS011;484;48.128;11.602;2024-03-22T15:13:38;3.07;;;2.77;;
990;SDS011;484;48.128;11.602;2024-03-22T15:16:24;2.03;;;1.60;;
990;SDS011;484;48.128;11.602;2024-03-22T15:19:08;1.20;;;1.20;;
990;SDS011;484;48.128;11.602;2024-03-22T15:21:55;2.17;;;1.90;;
990;SDS011;484;48.128;11.602;2024-03-22T15:24:40;1.43;;;1.33;;
990;SDS011;484;48.128;11.602;2024-03-22T15:27:26;1.83;;;1.70;;
990;SDS011;484;48.128;11.602;2024-03-22T15:30:11;1.97;;;1.77;;
990;SDS011;484;48.128;11.602;2024-03-22T15:32:58;2.03;;;1.93;;
990;SDS011;484;48.128;11.602;2024-03-22T15:35:43;2.53;;;2.40;;
990;SDS011;484;48.128;11.602;2024-03-22T15:38:31;1.63;;;1.53;;
990;SDS011;484;48.128;11.602;2024-03-22T15:41:18;2.17;;;1.70;;
990;SDS011;484;48.128;11.602;2024-03-22T15:44:03;2.07;;;1.97;;
990;SDS011;484;48.128;11.602;2024-03-22T15:46:48;1.73;;;1.63;;
990;SDS011;484;48.128;11.602;2024-03-22T15:49:33;1.60;;;1.50;;
990;SDS011;484;48.128;11.602;2024-03-22T15:52:19;1.57;;;1.43;;
990;SDS011;484;48.128;11.602;2024-03-22T15:55:04;1.80;;;1.70;;
990;SDS011;484;48.128;11.602;2024-03-22T15:57:52;2.10;;;1.97;;
990;SDS011;484;48.128;11.602;2024-03-22T16:00:39;3.47;;;2.20;;
990;SDS011;484;48.128;11.602;2024-03-22T16:03:24;1.70;;;1.60;;
990;SDS011;484;48.128;11.602;2024-03-22T16:06:09;1.63;;;1.53;;
990;SDS011;484;48.128;11.602;2024-03-22T16:08:54;1.70;;;1.60;;
990;SDS011;484;48.128;11.602;2024-03-22T16:11:39;1.70;;;1.60;;
990;SDS011;484;48.128;11.602;2024-03-22T16:14:25;4.53;;;2.50;;
990;SDS011;484;48.128;11.602;2024-03-22T16:17:10;1.70;;;1.60;;
990;SDS011;484;48.128;11.602;2024-03-22T16:19:56;1.27;;;1.17;;
990;SDS011;484;48.128;11.602;2024-03-22T16:22:40;1.60;;;1.50;;
990;SDS011;484;48.128;11.602;2024-03-22T16:25:26;1.20;;;1.10;;
990;SDS011;484;48.128;11.602;2024-03-22T16:28:10;1.60;;;1.50;;
990;SDS011;484;48.128;11.602;2024-03-22T16:30:57;1.17;;;1.03;;
990;SDS011;484;48.128;11.602;2024-03-22T16:33:42;2.00;;;1.50;;
990;SDS011;484;48.128;11.602;2024-03-22T16:36:27;1.47;;;1.30;;
990;SDS011;484;48.128;11.602;2024-03-22T16:39:12;2.07;;;1.50;;
990;SDS011;484;48.128;11.602;2024-03-22T16:41:57;1.90;;;1.80;;
990;SDS011;484;48.128;11.602;2024-03-22T16:44:42;3.13;;;2.63;;
990;SDS011;484;48.128;11.602;2024-03-22T16:47:29;2.37;;;2.17;;
990;SDS011;484;48.128;11.602;2024-03-22T16:50:13;3.70;;;1.50;;
990;SDS011;484;48.128;11.602;2024-03-22T16:52:59;5.63;;;2.47;;
990;SDS011;484;48.128;11.602;2024-03-22T16:55:43;1.13;;;1.13;;
990;SDS011;484;48.128;11.602;2024-03-22T16:58:29;2.50;;;1.53;;
990;SDS011;484;48.128;11.602;2024-03-22T17:01:13;1.73;;;1.63;;
990;SDS011;484;48.128;11.602;2024-03-22T17:04:00;2.13;;;1.20;;
990;SDS011;484;48.128;11.602;2024-03-22T17:06:45;1.80;;;1.70;;
990;SDS011;484;48.128;11.602;2024-03-22T17:09:30;3.03;;;2.03;;
990;SDS011;484;48.128;11.602;2024-03-22T17:12:15;5.47;;;1.90;;
990;SDS011;484;48.128;11.602;2024-03-22T17:15:00;3.77;;;1.70;;
990;SDS011;484;48.128;11.602;2024-03-22T17:17:47;4.83;;;4.40;;
990;SDS011;484;48.128;11.602;2024-03-22T17:20:34;4.47;;;2.47;;